sensor_id;sensor_type;location;lat;lon;timestamp;P1;durP1;ratioP1;P2;durP2;ratioP2
40953;SDS011;26686;50.130;8.710;2024-01-16T00:04:14;3.70;;;1.50;;
40953;SDS011;26686;50.130;8.710;2024-01-16T00:09:16;3.83;;;1.75;;
40953;SDS011;26686;50.130;8.710;2024-01-16T00:14:17;4.70;;;1.95;;
40953;SDS011;26686;50.130;8.710;2024-01-16T00:19:20;2.70;;;1.65;;
40953;SDS011;26686;50.130;8.710;2024-01-16T00:24:22;2.63;;;1.92;;
40953;SDS011;26686;50.130;8.710;2024-01-16T00:29:23;3.88;;;2.22;;
40953;SDS011;26686;50.130;8.710;2024-01-16T00:34:24;4.50;;;2.22;;
40953;SDS011;26686;50.130;8.710;2024-01-16T00:39:26;3.63;;;2.10;;
40953;SDS011;26686;50.130;8.710;2024-01-16T00:44:27;4.63;;;2.22;;
40953;SDS011;26686;50.130;8.710;2024-01-16T00:49:29;3.95;;;2.50;;
40953;SDS011;26686;50.130;8.710;2024-01-16T00:54:31;6.65;;;2.80;;
40953;SDS011;26686;50.130;8.710;2024-01-16T00:59:33;4.70;;;2.60;;
40953;SDS011;26686;50.130;8.710;2024-01-16T01:04:36;4.20;;;2.33;;
40953;SDS011;26686;50.130;8.710;2024-01-16T01:09:38;4.15;;;2.53;;
40953;SDS011;26686;50.130;8.710;2024-01-16T01:14:39;4.88;;;2.78;;
40953;SDS011;26686;50.130;8.710;2024-01-16T01:19:41;5.75;;;2.75;;
40953;SDS011;26686;50.130;8.710;2024-01-16T01:24:43;6.65;;;3.00;;
40953;SDS011;26686;50.130;8.710;2024-01-16T01:29:45;6.40;;;4.15;;
40953;SDS011;26686;50.130;8.710;2024-01-16T01:34:46;7.20;;;2.95;;
40953;SDS011;26686;50.130;8.710;2024-01-16T01:39:47;4.50;;;2.90;;
40953;SDS011;26686;50.130;8.710;2024-01-16T01:44:51;7.18;;;3.67;;
40953;SDS011;26686;50.130;8.710;2024-01-16T01:49:53;5.75;;;3.97;;
40953;SDS011;26686;50.130;8.710;2024-01-16T01:54:55;6.15;;;2.85;;
40953;SDS011;26686;50.130;8.710;2024-01-16T01:59:56;5.70;;;3.38;;
40953;SDS011;26686;50.130;8.710;2024-01-16T02:04:58;4.43;;;3.30;;
40953;SDS011;26686;50.130;8.710;2024-01-16T02:09:59;4.55;;;3.50;;
40953;SDS011;26686;50.130;8.710;2024-01-16T02:15:01;5.68;;;3.25;;
40953;SDS011;26686;50.130;8.710;2024-01-16T02:20:04;6.05;;;3.00;;
40953;SDS011;26686;50.130;8.710;2024-01-16T02:25:08;4.43;;;3.10;;
40953;SDS011;26686;50.130;8.710;2024-01-16T02:30:11;5.38;;;3.78;;
40953;SDS011;26686;50.130;8.710;2024-01-16T02:35:13;5.45;;;4.00;;
40953;SDS011;26686;50.130;8.710;2024-01-16T02:40:14;5.13;;;3.42;;
40953;SDS011;26686;50.130;8.710;2024-01-16T02:45:18;4.13;;;3.30;;
40953;SDS011;26686;50.130;8.710;2024-01-16T02:50:21;5.55;;;3.88;;
40953;SDS011;26686;50.130;8.710;2024-01-16T02:55:22;4.40;;;3.40;;
40953;SDS011;26686;50.130;8.710;2024-01-16T03:00:24;9.00;;;4.47;;
40953;SDS011;26686;50.130;8.710;2024-01-16T03:05:25;4.57;;;3.30;;
40953;SDS011;26686;50.130;8.710;2024-01-16T03:10:27;8.70;;;4.72;;
40953;SDS011;26686;50.130;8.710;2024-01-16T03:15:28;7.45;;;3.90;;
40953;SDS011;26686;50.130;8.710;2024-01-16T03:20:32;4.47;;;3.47;;
40953;SDS011;26686;50.130;8.710;2024-01-16T03:25:34;7.82;;;3.78;;
40953;SDS011;26686;50.130;8.710;2024-01-16T03:30:39;7.28;;;4.97;;
40953;SDS011;26686;50.130;8.710;2024-01-16T03:35:41;5.75;;;4.15;;
40953;SDS011;26686;50.130;8.710;2024-01-16T03:40:43;7.72;;;3.78;;
40953;SDS011;26686;50.130;8.710;2024-01-16T03:45:44;7.88;;;4.32;;
40953;SDS011;26686;50.130;8.710;2024-01-16T03:50:46;5.68;;;4.38;;
40953;SDS011;26686;50.130;8.710;2024-01-16T03:55:49;4.97;;;3.25;;
40953;SDS011;26686;50.130;8.710;2024-01-16T04:00:53;8.10;;;3.93;;
40953;SDS011;26686;50.130;8.710;2024-01-16T04:05:55;9.32;;;4.55;;
40953;SDS011;26686;50.130;8.710;2024-01-16T04:10:56;6.45;;;3.42;;
40953;SDS011;26686;50.130;8.710;2024-01-16T04:15:58;9.13;;;3.72;;
40953;SDS011;26686;50.130;8.710;2024-01-16T04:20:59;4.57;;;3.15;;
40953;SDS011;26686;50.130;8.710;2024-01-16T04:26:01;4.95;;;3.88;;
40953;SDS011;26686;50.130;8.710;2024-01-16T04:31:03;8.30;;;3.95;;
40953;SDS011;26686;50.130;8.710;2024-01-16T04:36:06;6.68;;;3.70;;
40953;SDS011;26686;50.130;8.710;2024-01-16T04:41:08;8.00;;;4.20;;
40953;SDS011;26686;50.130;8.710;2024-01-16T04:46:09;7.88;;;4.97;;
40953;SDS011;26686;50.130;8.710;2024-01-16T04:51:11;6.10;;;3.53;;
40953;SDS011;26686;50.130;8.710;2024-01-16T04:56:13;7.43;;;4.50;;
40953;SDS011;26686;50.130;8.710;2024-01-16T05:01:14;5.10;;;3.22;;
40953;SDS011;26686;50.130;8.710;2024-01-16T05:06:18;5.72;;;4.10;;
40953;SDS011;26686;50.130;8.710;2024-01-16T05:11:19;6.25;;;4.00;;
40953;SDS011;26686;50.130;8.710;2024-01-16T05:16:21;6.78;;;4.93;;
40953;SDS011;26686;50.130;8.710;2024-01-16T05:21:22;7.63;;;3.88;;
40953;SDS011;26686;50.130;8.710;2024-01-16T05:26:24;6.60;;;5.20;;
40953;SDS011;26686;50.130;8.710;2024-01-16T05:31:26;6.10;;;4.97;;
40953;SDS011;26686;50.130;8.710;2024-01-16T05:36:27;11.98;;;5.07;;
40953;SDS011;26686;50.130;8.710;2024-01-16T05:41:34;5.43;;;3.85;;
40953;SDS011;26686;50.130;8.710;2024-01-16T05:46:36;6.50;;;4.63;;
40953;SDS011;26686;50.130;8.710;2024-01-16T05:51:39;6.18;;;4.47;;
40953;SDS011;26686;50.130;8.710;2024-01-16T05:56:41;6.63;;;4.18;;
40953;SDS011;26686;50.130;8.710;2024-01-16T06:01:42;7.72;;;4.90;;
40953;SDS011;26686;50.130;8.710;2024-01-16T06:06:44;5.00;;;3.85;;
40953;SDS011;26686;50.130;8.710;2024-01-16T06:11:48;7.45;;;4.00;;
40953;SDS011;26686;50.130;8.710;2024-01-16T06:16:50;5.65;;;4.20;;
40953;SDS011;26686;50.130;8.710;2024-01-16T06:21:52;5.35;;;4.35;;
40953;SDS011;26686;50.130;8.710;2024-01-16T06:26:54;7.43;;;4.40;;
40953;SDS011;26686;50.130;8.710;2024-01-16T06:31:55;7.47;;;4.57;;
40953;SDS011;26686;50.130;8.710;2024-01-16T06:36:57;9.90;;;5.43;;
40953;SDS011;26686;50.130;8.710;2024-01-16T06:42:00;8.48;;;4.78;;
40953;SDS011;26686;50.130;8.710;2024-01-16T06:47:01;5.68;;;4.53;;
40953;SDS011;26686;50.130;8.710;2024-01-16T06:52:03;8.05;;;4.72;;
40953;SDS011;26686;50.130;8.710;2024-01-16T06:57:05;8.35;;;5.45;;
40953;SDS011;26686;50.130;8.710;2024-01-16T07:02:06;10.77;;;5.55;;
40953;SDS011;26686;50.130;8.710;2024-01-16T07:07:09;8.13;;;4.88;;
40953;SDS011;26686;50.130;8.710;2024-01-16T07:12:10;8.77;;;6.15;;
40953;SDS011;26686;50.130;8.710;2024-01-16T07:17:12;9.57;;;5.57;;
40953;SDS011;26686;50.130;8.710;2024-01-16T07:22:13;9.02;;;5.65;;
40953;SDS011;26686;50.130;8.710;2024-01-16T07:27:16;7.60;;;5.18;;
40953;SDS011;26686;50.130;8.710;2024-01-16T07:32:18;8.55;;;6.30;;
40953;SDS011;26686;50.130;8.710;2024-01-16T07:37:20;7.60;;;5.78;;
40953;SDS011;26686;50.130;8.710;2024-01-16T07:42:22;6.72;;;5.72;;
40953;SDS011;26686;50.130;8.710;2024-01-16T07:47:23;11.18;;;6.50;;
40953;SDS011;26686;50.130;8.710;2024-01-16T07:52:26;14.07;;;6.57;;
40953;SDS011;26686;50.130;8.710;2024-01-16T07:57:28;7.13;;;5.10;;
40953;SDS011;26686;50.130;8.710;2024-01-16T08:02:33;9.23;;;5.72;;
40953;SDS011;26686;50.130;8.710;2024-01-16T08:07:42;7.93;;;5.78;;
40953;SDS011;26686;50.130;8.710;2024-01-16T08:12:45;7.83;;;6.27;;
40953;SDS011;26686;50.130;8.710;2024-01-16T08:17:47;9.75;;;6.75;;
40953;SDS011;26686;50.130;8.710;2024-01-16T08:22:49;8.10;;;5.25;;
40953;SDS011;26686;50.130;8.710;2024-01-16T08:27:51;8.63;;;6.43;;
40953;SDS011;26686;50.130;8.710;2024-01-16T08:32:54;8.32;;;6.15;;
40953;SDS011;26686;50.130;8.710;2024-01-16T08:37:56;8.20;;;7.40;;
40953;SDS011;26686;50.130;8.710;2024-01-16T08:42:57;8.18;;;6.05;;
40953;SDS011;26686;50.130;8.710;2024-01-16T08:47:59;11.25;;;6.45;;
40953;SDS011;26686;50.130;8.710;2024-01-16T08:53:01;9.32;;;6.25;;
40953;SDS011;26686;50.130;8.710;2024-01-16T08:58:02;9.25;;;5.55;;
40953;SDS011;26686;50.130;8.710;2024-01-16T09:03:04;11.38;;;7.03;;
40953;SDS011;26686;50.130;8.710;2024-01-16T09:08:06;9.23;;;6.32;;
40953;SDS011;26686;50.130;8.710;2024-01-16T09:13:12;9.95;;;6.05;;
40953;SDS011;26686;50.130;8.710;2024-01-16T09:18:14;11.15;;;6.45;;
40953;SDS011;26686;50.130;8.710;2024-01-16T09:23:16;12.63;;;7.28;;
40953;SDS011;26686;50.130;8.710;2024-01-16T09:28:18;12.07;;;7.47;;
40953;SDS011;26686;50.130;8.710;2024-01-16T09:33:19;16.52;;;13.20;;
40953;SDS011;26686;50.130;8.710;2024-01-16T09:38:22;13.30;;;11.70;;
40953;SDS011;26686;50.130;8.710;2024-01-16T09:43:25;10.55;;;7.38;;
40953;SDS011;26686;50.130;8.710;2024-01-16T09:48:28;9.23;;;6.27;;
40953;SDS011;26686;50.130;8.710;2024-01-16T09:53:35;11.18;;;6.50;;
40953;SDS011;26686;50.130;8.710;2024-01-16T09:58:38;11.60;;;6.40;;
40953;SDS011;26686;50.130;8.710;2024-01-16T10:03:39;8.25;;;6.28;;
40953;SDS011;26686;50.130;8.710;2024-01-16T10:08:45;8.82;;;6.50;;
40953;SDS011;26686;50.130;8.710;2024-01-16T10:13:47;7.65;;;6.00;;
40953;SDS011;26686;50.130;8.710;2024-01-16T10:19:03;9.52;;;6.68;;
40953;SDS011;26686;50.130;8.710;2024-01-16T10:24:12;11.80;;;6.97;;
40953;SDS011;26686;50.130;8.710;2024-01-16T10:29:16;8.23;;;6.10;;
40953;SDS011;26686;50.130;8.710;2024-01-16T10:34:21;7.93;;;6.30;;
40953;SDS011;26686;50.130;8.710;2024-01-16T10:39:25;8.55;;;6.97;;
40953;SDS011;26686;50.130;8.710;2024-01-16T10:44:52;8.80;;;5.78;;
40953;SDS011;26686;50.130;8.710;2024-01-16T10:49:55;8.50;;;6.28;;
40953;SDS011;26686;50.130;8.710;2024-01-16T10:54:56;12.70;;;10.38;;
40953;SDS011;26686;50.130;8.710;2024-01-16T11:00:05;34.50;;;24.25;;
40953;SDS011;26686;50.130;8.710;2024-01-16T11:05:10;11.75;;;8.93;;
40953;SDS011;26686;50.130;8.710;2024-01-16T11:10:13;17.58;;;14.23;;
40953;SDS011;26686;50.130;8.710;2024-01-16T11:15:15;12.35;;;7.03;;
40953;SDS011;26686;50.130;8.710;2024-01-16T11:20:17;9.93;;;6.57;;
40953;SDS011;26686;50.130;8.710;2024-01-16T11:25:40;13.18;;;7.50;;
40953;SDS011;26686;50.130;8.710;2024-01-16T11:30:42;9.27;;;6.00;;
40953;SDS011;26686;50.130;8.710;2024-01-16T11:35:46;9.77;;;6.28;;
40953;SDS011;26686;50.130;8.710;2024-01-16T11:40:49;12.07;;;6.78;;
40953;SDS011;26686;50.130;8.710;2024-01-16T11:45:51;14.98;;;10.73;;
40953;SDS011;26686;50.130;8.710;2024-01-16T11:50:53;8.15;;;6.85;;
40953;SDS011;26686;50.130;8.710;2024-01-16T11:56:00;10.88;;;8.20;;
40953;SDS011;26686;50.130;8.710;2024-01-16T12:01:15;9.07;;;6.03;;
40953;SDS011;26686;50.130;8.710;2024-01-16T12:06:22;9.02;;;6.18;;
40953;SDS011;26686;50.130;8.710;2024-01-16T12:11:25;9.43;;;5.65;;
40953;SDS011;26686;50.130;8.710;2024-01-16T12:16:41;13.55;;;8.48;;
40953;SDS011;26686;50.130;8.710;2024-01-16T12:21:43;8.40;;;6.32;;
40953;SDS011;26686;50.130;8.710;2024-01-16T12:26:46;9.60;;;6.35;;
40953;SDS011;26686;50.130;8.710;2024-01-16T12:31:47;8.88;;;6.57;;
40953;SDS011;26686;50.130;8.710;2024-01-16T12:36:49;10.73;;;6.65;;
40953;SDS011;26686;50.130;8.710;2024-01-16T12:42:08;11.02;;;7.55;;
40953;SDS011;26686;50.130;8.710;2024-01-16T12:47:16;8.57;;;5.93;;
40953;SDS011;26686;50.130;8.710;2024-01-16T12:52:20;7.57;;;5.07;;
40953;SDS011;26686;50.130;8.710;2024-01-16T12:57:27;8.00;;;5.10;;
40953;SDS011;26686;50.130;8.710;2024-01-16T13:02:29;7.60;;;4.78;;
40953;SDS011;26686;50.130;8.710;2024-01-16T13:07:31;9.00;;;6.00;;
40953;SDS011;26686;50.130;8.710;2024-01-16T13:12:34;7.45;;;4.43;;
40953;SDS011;26686;50.130;8.710;2024-01-16T13:17:36;6.10;;;4.97;;
40953;SDS011;26686;50.130;8.710;2024-01-16T13:22:40;10.97;;;6.00;;
40953;SDS011;26686;50.130;8.710;2024-01-16T13:27:47;13.25;;;11.23;;
40953;SDS011;26686;50.130;8.710;2024-01-16T13:32:49;10.30;;;5.55;;
40953;SDS011;26686;50.130;8.710;2024-01-16T13:37:51;25.27;;;22.92;;
40953;SDS011;26686;50.130;8.710;2024-01-16T13:42:53;7.95;;;5.35;;
40953;SDS011;26686;50.130;8.710;2024-01-16T13:47:55;6.53;;;5.05;;
40953;SDS011;26686;50.130;8.710;2024-01-16T13:53:02;8.18;;;6.25;;
40953;SDS011;26686;50.130;8.710;2024-01-16T13:58:04;8.27;;;5.63;;
40953;SDS011;26686;50.130;8.710;2024-01-16T14:03:05;8.02;;;5.43;;
40953;SDS011;26686;50.130;8.710;2024-01-16T14:08:08;9.60;;;5.93;;
40953;SDS011;26686;50.130;8.710;2024-01-16T14:13:13;8.23;;;5.95;;
40953;SDS011;26686;50.130;8.710;2024-01-16T14:18:14;6.13;;;4.68;;
40953;SDS011;26686;50.130;8.710;2024-01-16T14:23:16;11.15;;;5.22;;
40953;SDS011;26686;50.130;8.710;2024-01-16T14:28:18;7.47;;;5.78;;
40953;SDS011;26686;50.130;8.710;2024-01-16T14:33:30;7.97;;;4.40;;
40953;SDS011;26686;50.130;8.710;2024-01-16T14:38:31;4.30;;;3.70;;
40953;SDS011;26686;50.130;8.710;2024-01-16T14:43:33;8.25;;;5.13;;
40953;SDS011;26686;50.130;8.710;2024-01-16T14:48:34;8.90;;;4.75;;
40953;SDS011;26686;50.130;8.710;2024-01-16T14:53:39;6.68;;;3.70;;
40953;SDS011;26686;50.130;8.710;2024-01-16T14:58:41;9.35;;;5.28;;
40953;SDS011;26686;50.130;8.710;2024-01-16T15:03:42;10.52;;;5.03;;
40953;SDS011;26686;50.130;8.710;2024-01-16T15:08:44;8.15;;;4.93;;
40953;SDS011;26686;50.130;8.710;2024-01-16T15:13:45;10.77;;;5.10;;
40953;SDS011;26686;50.130;8.710;2024-01-16T15:18:47;7.50;;;5.00;;
40953;SDS011;26686;50.130;8.710;2024-01-16T15:23:49;6.70;;;5.20;;
40953;SDS011;26686;50.130;8.710;2024-01-16T15:28:52;10.43;;;5.85;;
40953;SDS011;26686;50.130;8.710;2024-01-16T15:33:54;7.90;;;5.07;;
40953;SDS011;26686;50.130;8.710;2024-01-16T15:38:56;8.32;;;5.88;;
40953;SDS011;26686;50.130;8.710;2024-01-16T15:43:58;6.28;;;5.18;;
40953;SDS011;26686;50.130;8.710;2024-01-16T15:49:11;8.82;;;7.35;;
40953;SDS011;26686;50.130;8.710;2024-01-16T15:54:12;7.07;;;4.72;;
40953;SDS011;26686;50.130;8.710;2024-01-16T15:59:14;7.88;;;5.15;;
40953;SDS011;26686;50.130;8.710;2024-01-16T16:04:16;10.57;;;6.78;;
40953;SDS011;26686;50.130;8.710;2024-01-16T16:09:18;8.68;;;5.07;;
40953;SDS011;26686;50.130;8.710;2024-01-16T16:14:20;9.10;;;7.85;;
40953;SDS011;26686;50.130;8.710;2024-01-16T16:19:22;8.48;;;5.85;;
40953;SDS011;26686;50.130;8.710;2024-01-16T16:24:24;9.82;;;6.57;;
40953;SDS011;26686;50.130;8.710;2024-01-16T16:29:25;9.00;;;5.47;;
40953;SDS011;26686;50.130;8.710;2024-01-16T16:34:28;9.75;;;6.28;;
40953;SDS011;26686;50.130;8.710;2024-01-16T16:39:30;12.48;;;7.78;;
40953;SDS011;26686;50.130;8.710;2024-01-16T16:44:32;8.30;;;5.57;;
40953;SDS011;26686;50.130;8.710;2024-01-16T16:49:34;7.28;;;5.15;;
40953;SDS011;26686;50.130;8.710;2024-01-16T16:54:36;11.82;;;5.82;;
40953;SDS011;26686;50.130;8.710;2024-01-16T16:59:40;8.82;;;5.90;;
40953;SDS011;26686;50.130;8.710;2024-01-16T17:04:42;11.35;;;5.80;;
40953;SDS011;26686;50.130;8.710;2024-01-16T17:09:44;8.13;;;5.75;;
40953;SDS011;26686;50.130;8.710;2024-01-16T17:14:46;8.40;;;5.32;;
40953;SDS011;26686;50.130;8.710;2024-01-16T17:19:47;10.52;;;5.75;;
40953;SDS011;26686;50.130;8.710;2024-01-16T17:24:50;12.48;;;6.88;;
40953;SDS011;26686;50.130;8.710;2024-01-16T17:29:52;12.75;;;6.53;;
40953;SDS011;26686;50.130;8.710;2024-01-16T17:34:53;10.70;;;7.15;;
40953;SDS011;26686;50.130;8.710;2024-01-16T17:39:55;7.68;;;6.22;;
40953;SDS011;26686;50.130;8.710;2024-01-16T17:44:57;11.50;;;7.32;;
40953;SDS011;26686;50.130;8.710;2024-01-16T17:50:04;9.45;;;6.25;;
40953;SDS011;26686;50.130;8.710;2024-01-16T17:55:10;7.47;;;5.55;;
40953;SDS011;26686;50.130;8.710;2024-01-16T18:00:13;11.10;;;6.75;;
40953;SDS011;26686;50.130;8.710;2024-01-16T18:05:18;12.27;;;7.20;;
40953;SDS011;26686;50.130;8.710;2024-01-16T18:10:20;10.77;;;6.80;;
40953;SDS011;26686;50.130;8.710;2024-01-16T18:15:22;10.18;;;7.40;;
40953;SDS011;26686;50.130;8.710;2024-01-16T18:20:25;13.55;;;6.50;;
40953;SDS011;26686;50.130;8.710;2024-01-16T18:25:32;8.18;;;6.88;;
40953;SDS011;26686;50.130;8.710;2024-01-16T18:30:35;12.32;;;7.32;;
40953;SDS011;26686;50.130;8.710;2024-01-16T18:35:37;13.82;;;8.63;;
40953;SDS011;26686;50.130;8.710;2024-01-16T18:40:40;12.32;;;7.03;;
40953;SDS011;26686;50.130;8.710;2024-01-16T18:45:42;11.95;;;7.78;;
40953;SDS011;26686;50.130;8.710;2024-01-16T18:50:45;12.35;;;8.13;;
40953;SDS011;26686;50.130;8.710;2024-01-16T18:55:52;11.68;;;8.13;;
40953;SDS011;26686;50.130;8.710;2024-01-16T19:00:54;9.60;;;7.30;;
40953;SDS011;26686;50.130;8.710;2024-01-16T19:06:00;10.90;;;6.95;;
40953;SDS011;26686;50.130;8.710;2024-01-16T19:11:03;12.02;;;7.93;;
40953;SDS011;26686;50.130;8.710;2024-01-16T19:16:05;9.88;;;7.78;;
40953;SDS011;26686;50.130;8.710;2024-01-16T19:21:10;18.58;;;11.63;;
40953;SDS011;26686;50.130;8.710;2024-01-16T19:26:11;43.00;;;24.30;;
40953;SDS011;26686;50.130;8.710;2024-01-16T19:31:13;13.60;;;8.60;;
40953;SDS011;26686;50.130;8.710;2024-01-16T19:36:15;35.72;;;22.10;;
40953;SDS011;26686;50.130;8.710;2024-01-16T19:41:16;16.33;;;10.57;;
40953;SDS011;26686;50.130;8.710;2024-01-16T19:46:21;12.10;;;8.07;;
40953;SDS011;26686;50.130;8.710;2024-01-16T19:51:23;11.65;;;8.20;;
40953;SDS011;26686;50.130;8.710;2024-01-16T19:56:31;31.65;;;21.40;;
40953;SDS011;26686;50.130;8.710;2024-01-16T20:01:32;19.17;;;13.48;;
40953;SDS011;26686;50.130;8.710;2024-01-16T20:06:34;15.93;;;10.10;;
40953;SDS011;26686;50.130;8.710;2024-01-16T20:11:36;19.10;;;12.63;;
40953;SDS011;26686;50.130;8.710;2024-01-16T20:16:38;16.80;;;13.85;;
40953;SDS011;26686;50.130;8.710;2024-01-16T20:21:40;15.52;;;13.02;;
40953;SDS011;26686;50.130;8.710;2024-01-16T20:26:45;17.17;;;12.10;;
40953;SDS011;26686;50.130;8.710;2024-01-16T20:31:46;15.90;;;11.98;;
40953;SDS011;26686;50.130;8.710;2024-01-16T20:36:47;15.98;;;13.75;;
40953;SDS011;26686;50.130;8.710;2024-01-16T20:41:56;16.98;;;12.68;;
40953;SDS011;26686;50.130;8.710;2024-01-16T20:46:59;16.17;;;13.23;;
40953;SDS011;26686;50.130;8.710;2024-01-16T20:52:03;15.45;;;11.48;;
40953;SDS011;26686;50.130;8.710;2024-01-16T20:57:05;17.85;;;11.02;;
40953;SDS011;26686;50.130;8.710;2024-01-16T21:02:07;14.23;;;9.95;;
40953;SDS011;26686;50.130;8.710;2024-01-16T21:07:08;14.57;;;11.02;;
40953;SDS011;26686;50.130;8.710;2024-01-16T21:12:10;14.65;;;10.30;;
40953;SDS011;26686;50.130;8.710;2024-01-16T21:17:14;14.73;;;9.57;;
40953;SDS011;26686;50.130;8.710;2024-01-16T21:22:15;13.20;;;9.25;;
40953;SDS011;26686;50.130;8.710;2024-01-16T21:27:30;14.53;;;10.50;;
40953;SDS011;26686;50.130;8.710;2024-01-16T21:32:33;18.23;;;11.18;;
40953;SDS011;26686;50.130;8.710;2024-01-16T21:37:36;16.13;;;11.85;;
40953;SDS011;26686;50.130;8.710;2024-01-16T21:42:38;12.90;;;11.07;;
40953;SDS011;26686;50.130;8.710;2024-01-16T21:47:40;12.00;;;10.15;;
40953;SDS011;26686;50.130;8.710;2024-01-16T21:52:43;15.50;;;10.63;;
40953;SDS011;26686;50.130;8.710;2024-01-16T21:57:45;14.05;;;11.05;;
40953;SDS011;26686;50.130;8.710;2024-01-16T22:02:49;16.17;;;11.60;;
40953;SDS011;26686;50.130;8.710;2024-01-16T22:07:58;13.48;;;11.15;;
40953;SDS011;26686;50.130;8.710;2024-01-16T22:13:01;16.15;;;11.68;;
40953;SDS011;26686;50.130;8.710;2024-01-16T22:18:03;15.93;;;12.05;;
40953;SDS011;26686;50.130;8.710;2024-01-16T22:23:05;14.35;;;11.85;;
40953;SDS011;26686;50.130;8.710;2024-01-16T22:28:07;16.80;;;12.68;;
40953;SDS011;26686;50.130;8.710;2024-01-16T22:33:10;13.23;;;10.75;;
40953;SDS011;26686;50.130;8.710;2024-01-16T22:38:13;14.80;;;12.15;;
40953;SDS011;26686;50.130;8.710;2024-01-16T22:43:15;20.00;;;12.18;;
40953;SDS011;26686;50.130;8.710;2024-01-16T22:48:16;15.52;;;11.95;;
40953;SDS011;26686;50.130;8.710;2024-01-16T22:53:18;14.23;;;10.45;;
40953;SDS011;26686;50.130;8.710;2024-01-16T22:58:20;14.07;;;11.60;;
40953;SDS011;26686;50.130;8.710;2024-01-16T23:03:23;15.05;;;12.52;;
40953;SDS011;26686;50.130;8.710;2024-01-16T23:08:25;15.57;;;12.15;;
40953;SDS011;26686;50.130;8.710;2024-01-16T23:13:26;16.30;;;12.80;;
40953;SDS011;26686;50.130;8.710;2024-01-16T23:18:28;19.35;;;13.13;;
40953;SDS011;26686;50.130;8.710;2024-01-16T23:23:31;17.42;;;13.20;;
40953;SDS011;26686;50.130;8.710;2024-01-16T23:28:33;16.45;;;12.13;;
40953;SDS011;26686;50.130;8.710;2024-01-16T23:33:34;18.13;;;14.20;;
40953;SDS011;26686;50.130;8.710;2024-01-16T23:38:36;17.67;;;12.68;;
40953;SDS011;26686;50.130;8.710;2024-01-16T23:43:39;15.65;;;11.98;;
40953;SDS011;26686;50.130;8.710;2024-01-16T23:48:44;17.70;;;13.32;;
40953;SDS011;26686;50.130;8.710;2024-01-16T23:53:46;17.02;;;14.30;;
40953;SDS011;26686;50.130;8.710;2024-01-16T23:58:49;17.45;;;12.40;;
